createdAt,value
2022-12-25T00:01:19.166Z,98.64
2022-12-25T00:03:46.731Z,97.19
2022-12-25T00:06:14.111Z,97.09
2022-12-25T00:08:41.251Z,95.23
2022-12-25T00:11:12.729Z,94.10
2022-12-25T00:13:39.904Z,93.42
2022-12-25T00:16:19.506Z,93.60
2022-12-25T00:18:47.695Z,92.56
2022-12-25T00:21:15.591Z,91.77
2022-12-25T00:23:43.302Z,91.61
2022-12-25T00:26:14.192Z,90.36
2022-12-25T00:28:41.290Z,88.82
2022-12-25T00:31:11.318Z,89.00
2022-12-25T00:33:40.193Z,88.00
2022-12-25T00:36:08.568Z,87.76
2022-12-25T00:38:37.248Z,86.97
2022-12-25T00:41:15.344Z,86.95
2022-12-25T00:43:43.247Z,86.39
2022-12-25T00:46:13.518Z,86.34
2022-12-25T00:48:41.506Z,86.21
2022-12-25T00:51:11.745Z,85.14
2022-12-25T00:53:39.048Z,84.76
2022-12-25T00:56:08.265Z,84.32
2022-12-25T00:58:36.292Z,84.44
2022-12-25T01:01:04.344Z,83.33
2022-12-25T01:03:31.809Z,83.75
2022-12-25T01:06:01.320Z,84.37
2022-12-25T01:08:30.836Z,84.12
2022-12-25T01:11:06.227Z,83.88
2022-12-25T01:13:35.425Z,82.27
2022-12-25T01:16:12.091Z,82.07
2022-12-25T01:18:39.202Z,82.88
2022-12-25T01:21:16.312Z,82.25
2022-12-25T01:23:44.721Z,81.27
2022-12-25T01:26:13.127Z,79.11
2022-12-25T01:28:40.932Z,78.48
2022-12-25T01:31:26.825Z,78.98
2022-12-25T01:33:53.993Z,78.98
2022-12-25T01:36:26.177Z,78.46
2022-12-25T01:38:55.014Z,77.85
2022-12-25T01:41:24.707Z,76.66
2022-12-25T01:44:06.046Z,75.76
2022-12-25T01:46:33.870Z,75.37
2022-12-25T01:49:12.025Z,74.80
2022-12-25T01:51:50.384Z,74.75
2022-12-25T01:54:25.907Z,74.57
2022-12-25T01:56:54.946Z,75.18
2022-12-25T01:59:24.835Z,73.89
2022-12-25T02:01:52.287Z,74.54
2022-12-25T02:04:38.948Z,72.26
2022-12-25T02:07:14.418Z,72.45
2022-12-25T02:09:42.155Z,72.98
2022-12-25T02:12:14.078Z,73.19
2022-12-25T02:14:41.302Z,73.24
2022-12-25T02:17:23.521Z,73.35
2022-12-25T02:19:59.671Z,73.91
2022-12-25T02:23:22.154Z,74.85
2022-12-25T02:26:07.352Z,74.48
2022-12-25T02:28:45.714Z,74.83
2022-12-25T02:31:22.101Z,75.12
2022-12-25T02:34:13.194Z,75.28
2022-12-25T02:36:46.243Z,73.45
2022-12-25T02:39:51.449Z,73.74
2022-12-25T02:43:05.416Z,73.01
2022-12-25T02:46:09.254Z,73.08
2022-12-25T02:49:01.719Z,74.34
2022-12-25T02:51:52.322Z,75.37
2022-12-25T02:54:45.090Z,73.97
2022-12-25T02:57:33.596Z,72.76
2022-12-25T03:00:21.383Z,73.26
2022-12-25T03:03:08.238Z,73.84
2022-12-25T03:05:58.644Z,73.95
2022-12-25T03:08:40.172Z,74.43
2022-12-25T03:11:28.841Z,74.00
2022-12-25T03:14:26.670Z,73.19
2022-12-25T03:16:56.723Z,73.92
2022-12-25T03:19:47.547Z,73.89
2022-12-25T03:22:40.385Z,74.15
2022-12-25T03:25:26.179Z,74.74
2022-12-25T03:27:56.292Z,74.72
2022-12-25T03:31:03.786Z,75.61
2022-12-25T03:34:23.784Z,75.89
2022-12-25T03:37:02.598Z,76.72
2022-12-25T03:39:57.744Z,75.57
2022-12-25T03:43:07.181Z,73.89
2022-12-25T03:46:06.599Z,73.73
2022-12-25T03:48:58.752Z,73.01
2022-12-25T03:51:50.970Z,70.46
2022-12-25T03:54:41.402Z,70.84
2022-12-25T03:57:28.809Z,69.77
2022-12-25T04:00:14.978Z,70.51
2022-12-25T04:03:00.486Z,70.45
2022-12-25T04:05:46.144Z,70.28
2022-12-25T04:08:31.692Z,68.69
2022-12-25T04:11:17.142Z,68.36
2022-12-25T04:14:02.752Z,68.37
2022-12-25T04:16:48.405Z,67.57
2022-12-25T04:19:33.864Z,69.59
2022-12-25T04:22:19.392Z,68.80
2022-12-25T04:25:04.779Z,68.35
2022-12-25T04:27:50.256Z,69.54
2022-12-25T04:30:35.706Z,70.45
2022-12-25T04:33:21.431Z,69.81
2022-12-25T04:36:07.485Z,70.19
2022-12-25T04:38:35.148Z,69.52
2022-12-25T04:41:02.827Z,69.13
2022-12-25T04:43:30.587Z,68.56
2022-12-25T04:45:59.782Z,69.33
2022-12-25T04:48:28.522Z,70.09
2022-12-25T04:50:56.364Z,69.00
2022-12-25T04:53:23.488Z,68.25
2022-12-25T04:55:50.529Z,68.25
2022-12-25T04:58:17.610Z,69.11
2022-12-25T05:00:44.599Z,67.65
2022-12-25T05:03:11.771Z,68.57
2022-12-25T05:05:40.763Z,68.00
2022-12-25T05:08:07.944Z,68.49
2022-12-25T05:10:35.045Z,68.00
2022-12-25T05:13:02.135Z,66.25
2022-12-25T05:15:29.167Z,66.17
2022-12-25T05:17:56.182Z,65.90
2022-12-25T05:20:23.297Z,64.27
2022-12-25T05:22:50.418Z,66.01
2022-12-25T05:25:17.410Z,64.96
2022-12-25T05:27:48.701Z,65.92
2022-12-25T05:30:19.106Z,67.38
2022-12-25T05:32:48.046Z,67.86
2022-12-25T05:35:15.303Z,66.97
2022-12-25T05:37:42.313Z,65.29
2022-12-25T05:40:09.971Z,66.72
2022-12-25T05:42:37.051Z,67.00
2022-12-25T05:45:04.377Z,67.22
2022-12-25T05:47:31.496Z,68.24
2022-12-25T05:49:58.480Z,67.71
2022-12-25T05:52:25.490Z,68.25
2022-12-25T05:54:52.503Z,68.87
2022-12-25T05:57:19.531Z,68.01
2022-12-25T05:59:46.529Z,67.94
2022-12-25T06:02:13.674Z,68.61
2022-12-25T06:04:40.868Z,68.74
2022-12-25T06:07:07.909Z,70.16
2022-12-25T06:09:34.921Z,68.58
2022-12-25T06:12:01.946Z,68.14
2022-12-25T06:14:29.193Z,68.76
2022-12-25T06:16:56.288Z,69.13
2022-12-25T06:19:23.406Z,68.35
2022-12-25T06:21:54.840Z,68.37
2022-12-25T06:24:25.170Z,68.08
2022-12-25T06:26:52.244Z,67.56
2022-12-25T06:29:19.672Z,67.14
2022-12-25T06:31:46.719Z,66.58
2022-12-25T06:34:16.585Z,66.10
2022-12-25T06:36:43.703Z,66.09
2022-12-25T06:39:11.035Z,65.76
2022-12-25T06:41:38.227Z,65.51
2022-12-25T06:44:05.490Z,66.58
2022-12-25T06:46:32.590Z,66.87
2022-12-25T06:49:00.594Z,66.89
2022-12-25T06:51:32.290Z,67.31
2022-12-25T06:54:03.117Z,66.67
2022-12-25T06:56:30.523Z,65.89
2022-12-25T06:58:59.968Z,66.34
2022-12-25T07:01:44.688Z,64.76
2022-12-25T07:04:17.115Z,65.54
2022-12-25T07:06:44.146Z,64.73
2022-12-25T07:09:11.382Z,65.57
2022-12-25T07:11:38.439Z,66.18
2022-12-25T07:14:05.562Z,65.67
2022-12-25T07:16:32.658Z,65.07
2022-12-25T07:19:01.379Z,66.15
2022-12-25T07:21:28.517Z,63.81
2022-12-25T07:23:55.572Z,62.75
2022-12-25T07:26:22.609Z,63.51
2022-12-25T07:28:49.653Z,64.21
2022-12-25T07:31:18.185Z,64.26
2022-12-25T07:33:45.729Z,64.32
2022-12-25T07:36:14.329Z,63.77
2022-12-25T07:38:42.692Z,64.05
2022-12-25T07:41:11.788Z,64.68
2022-12-25T07:43:38.980Z,65.54
2022-12-25T07:46:06.235Z,65.58
2022-12-25T07:48:33.666Z,65.67
2022-12-25T07:51:06.303Z,64.53
2022-12-25T07:53:35.651Z,63.44
2022-12-25T07:56:08.259Z,65.04
2022-12-25T07:58:35.582Z,64.65
2022-12-25T08:01:08.471Z,65.59
2022-12-25T08:03:36.751Z,66.02
2022-12-25T08:06:06.827Z,67.08
2022-12-25T08:08:34.714Z,67.93
2022-12-25T08:11:02.041Z,65.87
2022-12-25T08:13:32.309Z,66.60
2022-12-25T08:16:01.701Z,66.63
2022-12-25T08:18:30.597Z,67.16
2022-12-25T08:21:03.406Z,66.81
2022-12-25T08:23:30.490Z,66.06
2022-12-25T08:26:05.002Z,65.90
2022-12-25T08:28:33.711Z,65.61
2022-12-25T08:31:06.933Z,65.80
2022-12-25T08:33:34.281Z,66.33
2022-12-25T08:36:06.628Z,66.61
2022-12-25T08:38:33.898Z,66.59
2022-12-25T08:41:01.071Z,65.21
2022-12-25T08:43:28.168Z,66.34
2022-12-25T08:45:55.427Z,65.84
2022-12-25T08:48:22.584Z,65.37
2022-12-25T08:50:51.191Z,65.65
2022-12-25T08:53:19.378Z,64.56
2022-12-25T08:55:46.725Z,64.76
2022-12-25T08:58:17.229Z,66.14
2022-12-25T09:00:44.232Z,65.63
2022-12-25T09:03:11.312Z,64.97
2022-12-25T09:05:38.643Z,63.45
2022-12-25T09:08:05.743Z,63.98
2022-12-25T09:10:36.753Z,65.55
2022-12-25T09:13:04.456Z,66.86
2022-12-25T09:15:32.735Z,64.60
2022-12-25T09:17:59.862Z,65.98
2022-12-25T09:20:26.937Z,66.81
2022-12-25T09:22:54.008Z,66.59
2022-12-25T09:25:21.028Z,67.42
2022-12-25T09:27:48.023Z,67.15
2022-12-25T09:30:15.331Z,65.84
2022-12-25T09:32:44.751Z,65.37
2022-12-25T09:35:13.996Z,65.93
2022-12-25T09:37:41.095Z,65.46
2022-12-25T09:40:10.368Z,65.84
2022-12-25T09:42:37.455Z,65.31
2022-12-25T09:45:12.076Z,63.60
2022-12-25T09:47:42.048Z,64.78
2022-12-25T09:50:17.745Z,65.41
2022-12-25T09:53:08.473Z,68.11
2022-12-25T09:55:43.636Z,65.93
2022-12-25T09:58:15.536Z,67.11
2022-12-25T10:00:48.884Z,66.49
2022-12-25T10:03:37.527Z,65.68
2022-12-25T10:06:45.852Z,66.12
2022-12-25T10:09:30.820Z,66.89
2022-12-25T10:12:09.391Z,66.39
2022-12-25T10:14:52.468Z,66.73
2022-12-25T10:17:22.235Z,66.23
2022-12-25T10:19:52.050Z,66.54
2022-12-25T10:22:38.527Z,67.37
2022-12-25T10:25:07.255Z,64.12
2022-12-25T10:27:40.985Z,63.98
2022-12-25T10:30:17.078Z,65.51
2022-12-25T10:32:45.670Z,66.02
2022-12-25T10:35:15.752Z,65.22
2022-12-25T10:37:45.134Z,66.45
2022-12-25T10:40:24.545Z,66.64
2022-12-25T10:43:17.987Z,67.03
2022-12-25T10:45:47.269Z,66.28
2022-12-25T10:48:28.052Z,65.45
2022-12-25T10:50:56.864Z,66.60
2022-12-25T10:53:29.031Z,66.42
2022-12-25T10:56:05.007Z,66.57
2022-12-25T10:58:33.403Z,65.52
2022-12-25T11:01:03.939Z,63.58
2022-12-25T11:03:44.298Z,63.05
2022-12-25T11:06:32.578Z,63.72
2022-12-25T11:09:02.751Z,63.99
2022-12-25T11:11:30.977Z,63.81
2022-12-25T11:14:01.236Z,64.03
2022-12-25T11:16:33.193Z,64.52
2022-12-25T11:19:01.158Z,64.56
2022-12-25T11:21:37.458Z,65.56
2022-12-25T11:24:07.046Z,64.40
2022-12-25T11:26:51.738Z,65.52
2022-12-25T11:29:36.271Z,64.34
2022-12-25T11:32:05.943Z,63.26
2022-12-25T11:34:41.267Z,64.47
2022-12-25T11:37:28.231Z,64.64
2022-12-25T11:39:55.422Z,64.50
2022-12-25T11:42:35.220Z,64.25
2022-12-25T11:45:28.706Z,64.27
2022-12-25T11:48:17.243Z,65.20
2022-12-25T11:50:51.552Z,65.50
2022-12-25T11:53:39.948Z,65.74
2022-12-25T11:56:40.560Z,64.75
2022-12-25T11:59:38.707Z,64.32
2022-12-25T12:02:20.912Z,64.61
2022-12-25T12:04:53.677Z,65.37
2022-12-25T12:07:27.374Z,66.68
2022-12-25T12:10:19.232Z,66.18
2022-12-25T12:13:12.329Z,65.91
2022-12-25T12:15:46.358Z,64.80
2022-12-25T12:18:22.317Z,64.20
2022-12-25T12:21:21.340Z,62.10
2022-12-25T12:24:04.261Z,61.86
2022-12-25T12:26:36.885Z,62.89
2022-12-25T12:29:07.149Z,62.78
2022-12-25T12:31:49.966Z,62.16
2022-12-25T12:34:46.182Z,63.25
2022-12-25T12:37:24.869Z,63.19
2022-12-25T12:39:54.610Z,61.36
2022-12-25T12:42:30.874Z,61.24
2022-12-25T12:45:08.931Z,61.07
2022-12-25T12:47:43.455Z,62.38
2022-12-25T12:50:41.206Z,63.98
2022-12-25T12:53:23.587Z,63.95
2022-12-25T12:55:52.169Z,63.66
2022-12-25T12:58:33.712Z,64.50
2022-12-25T13:01:25.622Z,62.85
2022-12-25T13:04:01.827Z,61.83
2022-12-25T13:06:40.414Z,62.53
2022-12-25T13:09:43.758Z,61.36
2022-12-25T13:12:13.155Z,61.21
2022-12-25T13:14:46.427Z,62.25
2022-12-25T13:17:24.520Z,62.05
2022-12-25T13:19:57.298Z,61.55
2022-12-25T13:22:32.942Z,61.71
2022-12-25T13:25:05.175Z,61.75
2022-12-25T13:27:33.764Z,59.92
2022-12-25T13:30:11.583Z,60.51
2022-12-25T13:32:38.744Z,60.73
2022-12-25T13:35:11.877Z,60.63
2022-12-25T13:37:39.017Z,60.13
2022-12-25T13:40:08.475Z,59.74
2022-12-25T13:42:39.924Z,58.68
2022-12-25T13:45:21.223Z,58.81
2022-12-25T13:47:54.670Z,58.55
2022-12-25T13:50:31.191Z,60.74
2022-12-25T13:53:11.839Z,61.07
2022-12-25T13:55:39.824Z,62.47
2022-12-25T13:58:14.672Z,62.04
2022-12-25T14:00:52.537Z,62.30
2022-12-25T14:03:23.724Z,62.97
2022-12-25T14:06:05.786Z,63.16
2022-12-25T14:08:35.336Z,63.61
2022-12-25T14:11:05.588Z,64.27
2022-12-25T14:13:37.721Z,64.16
2022-12-25T14:16:05.512Z,63.37
2022-12-25T14:18:33.539Z,62.18
2022-12-25T14:21:10.887Z,62.07
2022-12-25T14:23:49.031Z,61.58
2022-12-25T14:26:19.884Z,62.02
2022-12-25T14:28:53.224Z,62.67
2022-12-25T14:31:22.123Z,63.43
2022-12-25T14:33:50.364Z,62.67
2022-12-25T14:36:18.196Z,63.50
2022-12-25T14:38:57.168Z,62.94
2022-12-25T14:41:37.993Z,62.43
2022-12-25T14:44:06.933Z,62.79
2022-12-25T14:46:34.833Z,63.42
2022-12-25T14:49:07.317Z,62.62
2022-12-25T14:51:38.297Z,61.53
2022-12-25T14:54:13.817Z,62.43
2022-12-25T14:56:47.354Z,62.18
2022-12-25T14:59:18.856Z,62.06
2022-12-25T15:01:52.547Z,61.75
2022-12-25T15:04:22.347Z,61.55
2022-12-25T15:07:09.691Z,61.10
2022-12-25T15:09:37.874Z,61.53
2022-12-25T15:12:05.408Z,61.22
2022-12-25T15:14:32.471Z,61.31
2022-12-25T15:17:01.491Z,60.40
2022-12-25T15:19:37.395Z,61.53
2022-12-25T15:22:06.447Z,61.48
2022-12-25T15:24:33.549Z,61.46
2022-12-25T15:27:01.026Z,61.76
2022-12-25T15:32:21.820Z,60.80
2022-12-25T15:34:50.156Z,60.76
2022-12-25T15:37:18.565Z,60.74
2022-12-25T15:39:46.412Z,61.45
2022-12-25T15:42:19.572Z,61.59
2022-12-25T15:44:46.776Z,61.52
2022-12-25T15:47:16.168Z,61.50
2022-12-25T15:49:43.616Z,61.85
2022-12-25T15:52:14.177Z,63.90
2022-12-25T15:54:41.223Z,63.55
2022-12-25T15:57:18.168Z,63.77
2022-12-25T15:59:45.259Z,61.94
2022-12-25T16:02:17.935Z,61.84
2022-12-25T16:04:45.503Z,62.20
2022-12-25T16:07:17.790Z,63.07
2022-12-25T16:09:45.105Z,62.02
2022-12-25T16:12:12.379Z,61.37
2022-12-25T16:14:39.494Z,62.59
2022-12-25T16:17:06.698Z,61.88
2022-12-25T16:19:33.963Z,61.69
2022-12-25T16:22:01.168Z,61.55
2022-12-25T16:24:28.226Z,62.42
2022-12-25T16:26:55.295Z,61.98
2022-12-25T16:29:22.309Z,62.03
2022-12-25T16:31:49.329Z,61.34
2022-12-25T16:34:16.428Z,61.21
2022-12-25T16:36:43.424Z,61.85
2022-12-25T16:39:11.603Z,61.61
2022-12-25T16:41:38.638Z,62.52
2022-12-25T16:44:09.586Z,62.04
2022-12-25T16:46:37.493Z,61.68
2022-12-25T16:49:04.740Z,62.20
2022-12-25T16:51:31.770Z,63.80
2022-12-25T16:53:58.807Z,63.33
2022-12-25T16:56:28.629Z,63.74
2022-12-25T16:58:57.980Z,63.00
2022-12-25T17:01:25.734Z,63.87
2022-12-25T17:03:53.081Z,63.51
2022-12-25T17:06:23.876Z,62.96
2022-12-25T17:08:52.713Z,64.17
2022-12-25T17:11:24.380Z,65.73
2022-12-25T17:13:51.413Z,66.27
2022-12-25T17:16:21.484Z,66.79
2022-12-25T17:18:48.696Z,68.07
2022-12-25T17:21:15.812Z,69.11
2022-12-25T17:23:45.088Z,70.07
2022-12-25T17:26:12.199Z,68.85
2022-12-25T17:28:39.316Z,68.53
2022-12-25T17:31:08.710Z,68.43
2022-12-25T17:33:36.758Z,69.42
2022-12-25T17:36:06.482Z,69.25
2022-12-25T17:38:34.997Z,69.96
2022-12-25T17:41:05.626Z,70.88
2022-12-25T17:43:34.839Z,70.72
2022-12-25T17:46:09.138Z,71.28
2022-12-25T17:48:36.395Z,71.13
2022-12-25T17:51:09.740Z,70.18
2022-12-25T17:53:38.699Z,70.83
2022-12-25T17:56:06.483Z,70.38
2022-12-25T17:58:33.637Z,70.30
2022-12-25T18:01:09.557Z,68.27
2022-12-25T18:03:36.929Z,68.41
2022-12-25T18:06:05.423Z,67.99
2022-12-25T18:08:38.874Z,67.50
2022-12-25T18:11:15.323Z,67.22
2022-12-25T18:13:45.136Z,66.10
2022-12-25T18:16:13.322Z,66.18
2022-12-25T18:18:45.184Z,65.56
2022-12-25T18:21:16.732Z,67.03
2022-12-25T18:23:46.134Z,66.70
2022-12-25T18:26:13.857Z,66.20
2022-12-25T18:28:42.704Z,64.56
2022-12-25T18:31:13.284Z,64.13
2022-12-25T18:33:40.905Z,64.24
2022-12-25T18:36:12.370Z,65.29
2022-12-25T18:38:39.698Z,64.23
2022-12-25T18:41:09.044Z,64.68
2022-12-25T18:43:53.254Z,63.82
2022-12-25T18:46:27.719Z,62.65
2022-12-25T18:48:56.610Z,62.05
2022-12-25T18:51:24.438Z,62.95
2022-12-25T18:53:51.835Z,61.67
2022-12-25T18:56:20.534Z,61.46
2022-12-25T18:58:51.654Z,61.53
2022-12-25T19:01:21.947Z,59.93
2022-12-25T19:03:51.007Z,60.42
2022-12-25T19:06:20.564Z,61.84
2022-12-25T19:08:48.144Z,62.60
2022-12-25T19:11:18.975Z,62.34
2022-12-25T19:13:48.398Z,61.83
2022-12-25T19:16:17.062Z,61.76
2022-12-25T19:18:45.829Z,61.70
2022-12-25T19:21:13.058Z,62.05
2022-12-25T19:23:40.713Z,62.09
2022-12-25T19:26:09.910Z,61.57
2022-12-25T19:28:39.963Z,62.93
2022-12-25T19:31:09.007Z,63.10
2022-12-25T19:33:40.849Z,62.36
2022-12-25T19:36:13.231Z,61.28
2022-12-25T19:38:40.396Z,60.40
2022-12-25T19:41:09.420Z,59.27
2022-12-25T19:43:38.690Z,59.69
2022-12-25T19:46:07.015Z,61.07
2022-12-25T19:48:36.131Z,60.73
2022-12-25T19:51:03.372Z,60.88
2022-12-25T19:53:30.627Z,60.06
2022-12-25T19:56:01.559Z,60.23
2022-12-25T19:58:29.823Z,59.17
2022-12-25T20:01:01.532Z,59.58
2022-12-25T20:03:28.946Z,59.18
2022-12-25T20:05:56.660Z,60.28
2022-12-25T20:08:24.549Z,61.55
2022-12-25T20:10:52.016Z,62.23
2022-12-25T20:13:19.407Z,60.85
2022-12-25T20:15:47.251Z,61.36
2022-12-25T20:18:14.544Z,60.29
2022-12-25T20:20:41.586Z,60.28
2022-12-25T20:23:09.072Z,60.71
2022-12-25T20:25:41.068Z,60.91
2022-12-25T20:28:09.032Z,61.40
2022-12-25T20:30:41.452Z,61.64
2022-12-25T20:33:08.851Z,60.13
2022-12-25T20:35:36.974Z,61.06
2022-12-25T20:38:04.092Z,61.66
2022-12-25T20:40:37.580Z,62.60
2022-12-25T20:43:18.237Z,64.18
2022-12-25T20:45:45.265Z,64.19
2022-12-25T20:48:12.256Z,63.18
2022-12-25T20:50:39.300Z,60.51
2022-12-25T20:53:06.348Z,61.61
2022-12-25T20:55:33.356Z,61.25
2022-12-25T20:58:00.360Z,62.50
2022-12-25T21:00:27.437Z,62.92
2022-12-25T21:02:54.714Z,60.38
2022-12-25T21:05:23.130Z,61.68
2022-12-25T21:07:50.201Z,62.61
2022-12-25T21:10:17.277Z,62.80
2022-12-25T21:12:44.338Z,61.28
2022-12-25T21:15:15.726Z,62.39
2022-12-25T21:17:43.090Z,62.92
2022-12-25T21:20:10.567Z,63.48
2022-12-25T21:22:37.597Z,62.15
2022-12-25T21:25:04.946Z,63.47
2022-12-25T21:27:31.933Z,64.48
2022-12-25T21:29:58.947Z,63.53
2022-12-25T21:33:01.079Z,61.01
2022-12-25T21:35:28.117Z,60.92
2022-12-25T21:37:55.120Z,61.79
2022-12-25T21:40:22.126Z,60.44
2022-12-25T21:42:49.159Z,61.24
2022-12-25T21:45:16.243Z,60.64
2022-12-25T21:48:02.753Z,60.50
2022-12-25T21:50:49.004Z,59.05
2022-12-25T21:53:17.728Z,58.81
2022-12-25T21:55:56.750Z,58.90
2022-12-25T21:58:23.872Z,57.43
2022-12-25T22:00:50.920Z,55.73
2022-12-25T22:03:17.906Z,56.89
2022-12-25T22:06:03.394Z,56.13
2022-12-25T22:08:32.435Z,56.30
2022-12-25T22:11:03.390Z,57.07
2022-12-25T22:13:48.925Z,56.44
2022-12-25T22:16:34.437Z,56.32
2022-12-25T22:19:20.142Z,58.71
2022-12-25T22:21:47.172Z,59.10
2022-12-25T22:24:14.513Z,58.03
2022-12-25T22:26:44.306Z,57.83
2022-12-25T22:29:11.347Z,57.75
2022-12-25T22:31:44.728Z,56.89
2022-12-25T22:34:15.937Z,55.72
2022-12-25T22:36:43.390Z,55.46
2022-12-25T22:39:10.612Z,55.65
2022-12-25T22:41:37.827Z,56.66
2022-12-25T22:44:20.875Z,57.19
2022-12-25T22:46:48.087Z,58.23
2022-12-25T22:49:17.991Z,57.96
2022-12-25T22:51:46.061Z,58.18
2022-12-25T22:54:13.979Z,57.30
2022-12-25T22:56:41.414Z,56.37
2022-12-25T22:59:08.711Z,55.41
2022-12-25T23:01:36.433Z,55.56
2022-12-25T23:04:03.865Z,56.22
2022-12-25T23:06:30.970Z,56.58
2022-12-25T23:08:58.318Z,56.39
2022-12-25T23:11:25.869Z,56.38
2022-12-25T23:14:11.455Z,55.62
2022-12-25T23:16:38.543Z,54.83
2022-12-25T23:19:25.677Z,55.13
2022-12-25T23:22:11.463Z,55.68
2022-12-25T23:24:56.911Z,54.96
2022-12-25T23:27:23.888Z,54.88
2022-12-25T23:29:50.885Z,54.83
2022-12-25T23:32:30.473Z,55.90
2022-12-25T23:34:57.630Z,54.85
2022-12-25T23:37:24.649Z,56.27
2022-12-25T23:39:51.674Z,55.62
2022-12-25T23:42:18.764Z,56.37
2022-12-25T23:44:45.873Z,56.74
2022-12-25T23:47:13.104Z,58.03
2022-12-25T23:49:40.221Z,58.71
2022-12-25T23:52:07.259Z,59.05
2022-12-25T23:54:34.328Z,58.53
2022-12-25T23:57:01.459Z,58.01
2022-12-25T23:59:30.731Z,58.87
